createdAt,value
2018-10-19T00:01:41.771Z,24.80
2018-10-19T00:04:09.919Z,25.20
2018-10-19T00:06:38.423Z,25.20
2018-10-19T00:09:07.472Z,25.60
2018-10-19T00:11:35.638Z,25.67
2018-10-19T00:14:03.858Z,24.80
2018-10-19T00:16:32.023Z,24.30
2018-10-19T00:19:00.190Z,24.80
2018-10-19T00:21:28.391Z,24.90
2018-10-19T00:23:56.578Z,23.90
2018-10-19T00:26:24.739Z,24.67
2018-10-19T00:28:52.975Z,25.10
2018-10-19T00:31:21.104Z,27.03
2018-10-19T00:33:49.267Z,29.40
2018-10-19T00:36:17.430Z,29.33
2018-10-19T00:38:45.599Z,27.20
2018-10-19T00:41:13.836Z,23.63
2018-10-19T00:43:41.929Z,24.53
2018-10-19T00:46:10.119Z,23.83
2018-10-19T00:48:38.327Z,23.97
2018-10-19T00:51:06.580Z,24.40
2018-10-19T00:53:34.710Z,25.57
2018-10-19T00:56:02.894Z,26.70
2018-10-19T00:58:31.082Z,25.03
2018-10-19T01:00:59.288Z,26.77
2018-10-19T01:03:27.495Z,24.40
2018-10-19T01:05:55.685Z,25.53
2018-10-19T01:08:23.900Z,23.43
2018-10-19T01:10:52.081Z,22.57
2018-10-19T01:13:20.270Z,24.03
2018-10-19T01:15:48.460Z,22.53
2018-10-19T01:18:16.653Z,21.83
2018-10-19T01:20:44.868Z,23.50
2018-10-19T01:23:13.092Z,21.23
2018-10-19T01:25:42.271Z,20.93
2018-10-19T01:28:10.954Z,21.57
2018-10-19T01:30:39.162Z,22.30
2018-10-19T01:33:07.396Z,22.47
2018-10-19T01:35:35.543Z,22.60
2018-10-19T01:38:03.726Z,24.80
2018-10-19T01:40:31.921Z,26.30
2018-10-19T01:43:00.120Z,24.77
2018-10-19T01:45:29.363Z,24.00
2018-10-19T01:47:57.763Z,25.73
2018-10-19T01:50:25.911Z,24.27
2018-10-19T01:52:54.131Z,23.03
2018-10-19T01:55:22.264Z,22.60
2018-10-19T01:57:50.467Z,21.87
2018-10-19T02:00:18.611Z,22.40
2018-10-19T02:02:46.768Z,23.37
2018-10-19T02:05:14.990Z,23.00
2018-10-19T02:07:43.075Z,21.90
2018-10-19T02:10:11.218Z,21.30
2018-10-19T02:12:39.384Z,22.20
2018-10-19T02:15:08.030Z,23.10
2018-10-19T02:17:36.163Z,24.20
2018-10-19T02:20:04.319Z,23.23
2018-10-19T02:22:32.487Z,23.73
2018-10-19T02:25:00.720Z,22.23
2018-10-19T02:27:28.871Z,20.23
2018-10-19T02:29:57.028Z,23.50
2018-10-19T02:32:25.199Z,22.37
2018-10-19T02:34:53.372Z,22.03
2018-10-19T02:37:21.549Z,22.63
2018-10-19T02:39:49.808Z,20.77
2018-10-19T02:42:18.023Z,21.20
2018-10-19T02:44:46.199Z,19.40
2018-10-19T02:47:14.447Z,18.70
2018-10-19T02:49:42.599Z,22.10
2018-10-19T02:52:10.782Z,21.37
2018-10-19T02:54:38.946Z,22.20
2018-10-19T02:57:07.264Z,20.80
2018-10-19T02:59:35.394Z,22.00
2018-10-19T03:02:03.563Z,22.70
2018-10-19T03:04:31.740Z,22.23
2018-10-19T03:06:59.954Z,21.40
2018-10-19T03:09:28.100Z,21.70
2018-10-19T03:11:56.259Z,21.87
2018-10-19T03:14:24.426Z,22.20
2018-10-19T03:16:52.629Z,20.90
2018-10-19T03:19:20.784Z,22.17
2018-10-19T03:21:48.991Z,20.27
2018-10-19T03:24:17.127Z,21.43
2018-10-19T03:26:45.323Z,20.40
2018-10-19T03:29:13.523Z,21.87
2018-10-19T03:31:41.650Z,21.90
2018-10-19T03:34:10.908Z,21.63
2018-10-19T03:36:39.072Z,22.50
2018-10-19T03:39:08.149Z,20.53
2018-10-19T03:41:36.180Z,20.70
2018-10-19T03:44:04.443Z,20.27
2018-10-19T03:46:32.643Z,19.97
2018-10-19T03:49:00.903Z,22.87
2018-10-19T03:51:29.032Z,22.27
2018-10-19T03:53:57.224Z,21.63
2018-10-19T03:56:25.412Z,22.37
2018-10-19T03:58:53.657Z,21.03
2018-10-19T04:01:21.846Z,21.90
2018-10-19T04:03:50.054Z,22.40
2018-10-19T04:06:18.259Z,23.93
2018-10-19T04:08:46.470Z,23.30
2018-10-19T04:11:14.767Z,22.67
2018-10-19T04:13:42.867Z,19.43
2018-10-19T04:16:11.065Z,20.40
2018-10-19T04:18:39.258Z,21.77
2018-10-19T04:21:07.608Z,21.07
2018-10-19T04:23:35.732Z,22.60
2018-10-19T04:26:03.932Z,22.27
2018-10-19T04:28:32.157Z,21.20
2018-10-19T04:31:00.330Z,21.80
2018-10-19T04:33:28.544Z,22.73
2018-10-19T04:35:56.735Z,21.77
2018-10-19T04:38:25.047Z,23.07
2018-10-19T04:40:53.243Z,25.70
2018-10-19T04:43:21.466Z,26.57
2018-10-19T04:45:49.743Z,26.50
2018-10-19T04:48:17.907Z,30.37
2018-10-19T04:50:46.107Z,33.50
2018-10-19T04:53:14.330Z,31.53
2018-10-19T04:55:42.454Z,35.80
2018-10-19T04:58:10.619Z,39.90
2018-10-19T05:00:38.821Z,37.23
2018-10-19T05:03:07.017Z,37.10
2018-10-19T05:05:35.155Z,38.97
2018-10-19T05:08:03.385Z,40.07
2018-10-19T05:10:31.579Z,47.70
2018-10-19T05:12:59.817Z,47.90
2018-10-19T05:15:27.888Z,47.33
2018-10-19T05:17:56.070Z,100.83
2018-10-19T05:20:24.238Z,61.97
2018-10-19T05:22:52.404Z,42.53
2018-10-19T05:25:20.582Z,44.40
2018-10-19T05:27:48.743Z,48.23
2018-10-19T05:30:16.947Z,49.40
2018-10-19T05:32:45.134Z,49.30
2018-10-19T05:35:13.423Z,44.90
2018-10-19T05:37:41.781Z,46.13
2018-10-19T05:40:10.775Z,44.40
2018-10-19T05:42:39.407Z,44.73
2018-10-19T05:45:08.656Z,44.27
2018-10-19T05:47:36.842Z,53.47
2018-10-19T05:50:05.863Z,60.43
2018-10-19T05:52:34.048Z,51.40
2018-10-19T05:55:02.235Z,55.10
2018-10-19T05:57:30.423Z,50.20
2018-10-19T05:59:58.610Z,44.37
2018-10-19T06:02:26.924Z,46.67
2018-10-19T06:04:55.037Z,45.73
2018-10-19T06:07:23.210Z,47.13
2018-10-19T06:09:51.419Z,51.17
2018-10-19T06:12:19.619Z,46.93
2018-10-19T06:14:47.814Z,46.60
2018-10-19T06:17:16.016Z,45.97
2018-10-19T06:19:44.211Z,45.30
2018-10-19T06:22:12.506Z,43.70
2018-10-19T06:24:40.719Z,42.60
2018-10-19T06:27:08.906Z,45.40
2018-10-19T06:29:37.110Z,45.87
2018-10-19T06:32:05.924Z,44.40
2018-10-19T06:34:34.107Z,48.33
2018-10-19T06:37:02.297Z,48.47
2018-10-19T06:39:30.483Z,46.40
2018-10-19T06:41:58.695Z,45.73
2018-10-19T06:44:26.858Z,42.67
2018-10-19T06:46:55.105Z,40.77
2018-10-19T06:49:23.231Z,42.87
2018-10-19T06:51:51.396Z,42.67
2018-10-19T06:54:19.559Z,42.40
2018-10-19T06:56:47.724Z,41.00
2018-10-19T06:59:15.913Z,41.20
2018-10-19T07:01:44.044Z,44.20
2018-10-19T07:04:12.224Z,44.60
2018-10-19T07:06:40.412Z,50.20
2018-10-19T07:09:08.666Z,45.63
2018-10-19T07:11:36.832Z,47.40
2018-10-19T07:14:05.186Z,48.20
2018-10-19T07:16:33.320Z,48.70
2018-10-19T07:19:04.664Z,46.33
2018-10-19T07:21:32.759Z,50.70
2018-10-19T07:24:00.934Z,53.23
2018-10-19T07:26:29.108Z,50.13
2018-10-19T07:28:57.284Z,48.93
2018-10-19T07:31:25.484Z,47.27
2018-10-19T07:33:54.338Z,49.40
2018-10-19T07:36:22.623Z,48.47
2018-10-19T07:38:50.742Z,49.27
2018-10-19T07:41:18.975Z,46.10
2018-10-19T07:43:47.139Z,45.17
2018-10-19T07:46:15.351Z,47.20
2018-10-19T07:48:43.512Z,47.07
2018-10-19T07:51:11.678Z,45.07
2018-10-19T07:53:39.934Z,45.07
2018-10-19T07:56:08.212Z,44.93
2018-10-19T07:58:36.323Z,44.53
2018-10-19T08:01:04.578Z,49.30
2018-10-19T08:03:32.734Z,48.53
2018-10-19T08:06:00.971Z,47.80
2018-10-19T08:08:29.145Z,47.20
2018-10-19T08:10:57.352Z,49.20
2018-10-19T08:13:25.474Z,47.47
2018-10-19T08:15:53.655Z,50.67
2018-10-19T08:18:21.830Z,47.03
2018-10-19T08:20:50.015Z,51.90
2018-10-19T08:23:18.176Z,49.67
2018-10-19T08:25:46.365Z,49.63
2018-10-19T08:28:14.523Z,50.00
2018-10-19T08:30:42.707Z,50.30
2018-10-19T08:33:10.895Z,51.80
2018-10-19T08:35:39.106Z,49.43
2018-10-19T08:38:07.266Z,46.87
2018-10-19T08:40:35.462Z,50.67
2018-10-19T08:43:03.672Z,45.20
2018-10-19T08:45:31.867Z,44.77
2018-10-19T08:48:00.064Z,46.07
2018-10-19T08:50:28.255Z,42.40
2018-10-19T08:52:56.585Z,45.53
2018-10-19T08:55:24.748Z,47.80
2018-10-19T08:57:53.054Z,47.00
2018-10-19T09:00:21.140Z,44.90
2018-10-19T09:02:49.331Z,51.90
2018-10-19T09:05:17.537Z,48.00
2018-10-19T09:07:45.788Z,44.27
2018-10-19T09:10:14.173Z,47.37
2018-10-19T09:12:43.455Z,50.03
2018-10-19T09:15:11.591Z,47.73
2018-10-19T09:17:39.706Z,48.57
2018-10-19T09:20:07.915Z,47.53
2018-10-19T09:22:36.089Z,50.43
2018-10-19T09:25:04.343Z,47.07
2018-10-19T09:27:32.517Z,48.30
2018-10-19T09:30:00.768Z,50.67
2018-10-19T09:32:28.941Z,48.23
2018-10-19T09:34:57.119Z,48.23
2018-10-19T09:37:25.283Z,45.43
2018-10-19T09:39:53.448Z,46.83
2018-10-19T09:42:21.611Z,50.70
2018-10-19T09:44:49.770Z,48.70
2018-10-19T09:47:18.011Z,44.90
2018-10-19T09:49:46.098Z,46.27
2018-10-19T09:52:14.278Z,48.67
2018-10-19T09:54:42.447Z,44.87
2018-10-19T09:57:10.690Z,43.43
2018-10-19T09:59:38.768Z,47.83
2018-10-19T10:02:07.070Z,46.10
2018-10-19T10:04:35.216Z,45.70
2018-10-19T10:07:03.423Z,43.20
2018-10-19T10:09:31.562Z,44.87
2018-10-19T10:11:59.802Z,47.43
2018-10-19T10:14:27.983Z,46.33
2018-10-19T10:16:56.206Z,42.60
2018-10-19T10:19:24.295Z,42.07
2018-10-19T10:21:52.474Z,37.70
2018-10-19T10:24:20.682Z,39.30
2018-10-19T10:26:48.859Z,37.90
2018-10-19T10:29:17.057Z,34.73
2018-10-19T10:31:45.320Z,38.77
2018-10-19T10:34:13.544Z,37.20
2018-10-19T10:36:41.656Z,38.27
2018-10-19T10:39:11.557Z,36.87
2018-10-19T10:41:39.647Z,40.63
2018-10-19T10:44:07.959Z,36.70
2018-10-19T10:46:36.143Z,40.13
2018-10-19T10:49:04.374Z,36.80
2018-10-19T10:51:32.511Z,38.30
2018-10-19T10:54:00.699Z,36.93
2018-10-19T10:56:28.894Z,37.93
2018-10-19T10:58:57.074Z,39.77
2018-10-19T11:01:25.279Z,38.00
2018-10-19T11:03:53.485Z,41.23
2018-10-19T11:06:21.695Z,39.20
2018-10-19T11:08:49.889Z,39.37
2018-10-19T11:11:18.084Z,38.23
2018-10-19T11:13:46.272Z,40.33
2018-10-19T11:16:14.577Z,38.43
2018-10-19T11:18:42.668Z,36.13
2018-10-19T11:21:10.895Z,35.80
2018-10-19T11:23:39.128Z,36.40
2018-10-19T11:26:08.131Z,35.70
2018-10-19T11:28:36.313Z,37.60
2018-10-19T11:31:04.958Z,35.77
2018-10-19T11:33:33.115Z,37.50
2018-10-19T11:36:01.340Z,35.70
2018-10-19T11:38:29.515Z,35.00
2018-10-19T11:40:57.703Z,34.10
2018-10-19T11:43:25.891Z,34.47
2018-10-19T11:45:54.095Z,35.43
2018-10-19T11:48:22.288Z,34.10
2018-10-19T11:50:50.463Z,32.80
2018-10-19T11:53:18.657Z,32.40
2018-10-19T11:55:46.840Z,31.57
2018-10-19T11:58:15.071Z,33.33
2018-10-19T12:00:43.235Z,34.07
2018-10-19T12:03:11.440Z,34.80
2018-10-19T12:05:39.639Z,35.17
2018-10-19T12:08:07.828Z,34.27
2018-10-19T12:10:36.090Z,34.83
2018-10-19T12:13:04.264Z,34.00
2018-10-19T12:15:32.391Z,34.30
2018-10-19T12:18:00.576Z,35.63
2018-10-19T12:20:28.774Z,33.00
2018-10-19T12:22:57.035Z,36.90
2018-10-19T12:25:25.228Z,34.57
2018-10-19T12:27:53.411Z,33.07
2018-10-19T12:30:21.594Z,36.07
2018-10-19T12:32:49.774Z,35.60
2018-10-19T12:35:17.989Z,33.37
2018-10-19T12:37:46.180Z,33.13
2018-10-19T12:40:14.371Z,34.03
2018-10-19T12:42:42.633Z,33.50
2018-10-19T12:46:26.234Z,33.37
2018-10-19T12:48:55.028Z,34.87
2018-10-19T12:51:23.155Z,33.63
2018-10-19T12:53:51.350Z,34.00
2018-10-19T12:56:20.356Z,34.83
2018-10-19T12:58:49.676Z,35.67
2018-10-19T13:01:18.134Z,35.33
2018-10-19T13:03:46.361Z,34.70
2018-10-19T13:06:14.566Z,35.73
2018-10-19T13:08:42.758Z,35.60
2018-10-19T13:11:10.964Z,35.37
2018-10-19T13:13:39.259Z,34.37
2018-10-19T13:16:07.497Z,33.20
2018-10-19T13:18:35.653Z,33.97
2018-10-19T13:21:03.850Z,35.20
2018-10-19T13:23:32.726Z,34.57
2018-10-19T13:26:00.991Z,33.47
2018-10-19T13:28:29.263Z,33.90
2018-10-19T13:32:26.710Z,30.80
2018-10-19T13:34:54.907Z,28.90
2018-10-19T13:37:23.093Z,27.27
2018-10-19T13:39:51.274Z,27.30
2018-10-19T13:42:19.471Z,29.43
2018-10-19T13:44:47.650Z,28.87
2018-10-19T13:47:15.808Z,30.57
2018-10-19T13:49:43.976Z,30.50
2018-10-19T13:52:12.153Z,30.93
2018-10-19T13:54:40.314Z,26.73
2018-10-19T13:57:08.534Z,26.30
2018-10-19T13:59:36.635Z,27.30
2018-10-19T14:02:05.191Z,27.77
2018-10-19T14:04:33.367Z,26.07
2018-10-19T14:07:01.591Z,26.80
2018-10-19T14:09:29.757Z,31.07
2018-10-19T14:11:57.934Z,29.43
2018-10-19T14:14:26.099Z,29.97
2018-10-19T14:16:54.295Z,30.77
2018-10-19T14:19:22.411Z,30.40
2018-10-19T14:21:50.567Z,29.90
2018-10-19T14:24:18.829Z,32.47
2018-10-19T14:26:47.056Z,32.37
2018-10-19T14:29:15.200Z,32.93
2018-10-19T14:31:43.317Z,32.27
2018-10-19T14:34:11.475Z,34.37
2018-10-19T14:36:39.636Z,34.37
2018-10-19T14:39:07.842Z,33.43
2018-10-19T14:41:35.961Z,35.87
2018-10-19T14:44:04.151Z,34.33
2018-10-19T14:46:32.352Z,36.10
2018-10-19T14:49:00.615Z,36.77
2018-10-19T14:51:28.743Z,37.70
2018-10-19T14:53:56.934Z,38.83
2018-10-19T14:56:25.125Z,35.73
2018-10-19T14:58:53.393Z,38.87
2018-10-19T15:01:21.664Z,39.63
2018-10-19T15:03:49.855Z,40.80
2018-10-19T15:06:18.047Z,38.33
2018-10-19T15:08:46.247Z,41.90
2018-10-19T15:11:14.796Z,41.57
2018-10-19T15:13:42.632Z,40.93
2018-10-19T15:16:10.835Z,41.73
2018-10-19T15:18:39.153Z,41.40
2018-10-19T15:21:07.327Z,45.17
2018-10-19T15:23:35.479Z,43.00
2018-10-19T15:26:03.668Z,44.43
2018-10-19T15:28:31.859Z,45.17
2018-10-19T15:31:00.048Z,46.40
2018-10-19T15:33:28.239Z,44.07
2018-10-19T15:35:56.547Z,48.17
2018-10-19T15:38:24.682Z,49.63
2018-10-19T15:40:52.628Z,51.37
2018-10-19T15:43:20.823Z,52.67
2018-10-19T15:45:48.996Z,52.10
2018-10-19T15:48:17.178Z,51.50
2018-10-19T15:50:45.320Z,52.07
2018-10-19T15:53:13.578Z,54.23
2018-10-19T15:55:41.886Z,57.00
2018-10-19T15:58:10.061Z,56.37
2018-10-19T16:00:38.270Z,59.53
2018-10-19T16:03:06.525Z,57.97
2018-10-19T16:05:34.667Z,62.33
2018-10-19T16:08:02.841Z,62.77
2018-10-19T16:10:30.994Z,61.27
2018-10-19T16:12:59.154Z,66.43
2018-10-19T16:15:27.352Z,63.37
2018-10-19T16:17:55.518Z,65.73
2018-10-19T16:20:23.671Z,68.00
2018-10-19T16:22:51.882Z,70.30
2018-10-19T16:25:20.050Z,73.00
2018-10-19T16:27:48.233Z,75.27
2018-10-19T16:30:16.628Z,74.87
2018-10-19T16:32:44.790Z,70.30
2018-10-19T16:35:13.074Z,71.90
2018-10-19T16:37:41.332Z,74.57
2018-10-19T16:40:09.492Z,78.20
2018-10-19T16:42:37.870Z,71.73
2018-10-19T16:45:06.750Z,73.40
2018-10-19T16:47:34.964Z,72.60
2018-10-19T16:50:03.148Z,70.97
2018-10-19T16:52:31.452Z,72.00
2018-10-19T16:54:59.670Z,73.97
2018-10-19T16:57:27.851Z,72.20
2018-10-19T16:59:56.133Z,72.20
2018-10-19T17:02:24.319Z,76.77
2018-10-19T17:04:52.557Z,71.87
2018-10-19T17:07:20.736Z,72.40
2018-10-19T17:09:48.891Z,68.47
2018-10-19T17:12:17.050Z,67.37
2018-10-19T17:14:45.220Z,68.30
2018-10-19T17:17:13.383Z,69.20
2018-10-19T17:19:41.559Z,67.30
2018-10-19T17:22:09.726Z,63.80
2018-10-19T17:24:37.907Z,69.87
2018-10-19T17:27:06.305Z,72.40
2018-10-19T17:29:34.428Z,70.63
2018-10-19T17:32:02.585Z,71.10
2018-10-19T17:34:30.856Z,67.93
2018-10-19T17:36:59.058Z,71.10
2018-10-19T17:39:27.186Z,66.93
2018-10-19T17:41:55.405Z,70.07
2018-10-19T17:44:23.581Z,72.37
2018-10-19T17:46:51.754Z,71.87
2018-10-19T17:49:19.939Z,72.10
2018-10-19T17:51:48.104Z,62.80
2018-10-19T17:54:16.295Z,70.00
2018-10-19T17:56:44.451Z,70.67
2018-10-19T17:59:12.629Z,71.00
2018-10-19T18:01:40.883Z,73.00
2018-10-19T18:04:09.037Z,68.97
2018-10-19T18:06:37.218Z,72.47
2018-10-19T18:09:08.457Z,81.20
2018-10-19T18:11:36.628Z,77.00
2018-10-19T18:14:04.984Z,80.23
2018-10-19T18:16:33.160Z,81.60
2018-10-19T18:19:01.355Z,83.93
2018-10-19T18:21:29.598Z,84.87
2018-10-19T18:23:57.735Z,83.60
2018-10-19T18:26:26.078Z,76.83
2018-10-19T18:28:54.259Z,72.93
2018-10-19T18:31:22.399Z,73.13
2018-10-19T18:33:50.580Z,75.13
2018-10-19T18:36:18.816Z,76.33
2018-10-19T18:38:47.061Z,65.57
2018-10-19T18:41:15.446Z,69.57
2018-10-19T18:43:43.512Z,76.27
2018-10-19T18:46:11.810Z,66.90
2018-10-19T18:48:40.009Z,68.17
2018-10-19T18:53:42.817Z,75.97
2018-10-19T18:56:11.078Z,59.67
2018-10-19T18:58:39.229Z,71.10
2018-10-19T19:01:07.432Z,69.07
2018-10-19T19:03:35.680Z,71.73
2018-10-19T19:06:03.874Z,76.83
2018-10-19T19:08:32.067Z,67.20
2018-10-19T19:11:00.283Z,75.30
2018-10-19T19:13:29.140Z,73.17
2018-10-19T19:15:57.687Z,69.33
2018-10-19T19:18:26.102Z,66.17
2018-10-19T19:20:54.363Z,62.70
2018-10-19T19:23:22.567Z,65.70
2018-10-19T19:25:56.279Z,65.93
2018-10-19T19:28:24.479Z,72.07
2018-10-19T19:30:52.693Z,70.07
2018-10-19T19:33:26.094Z,65.10
2018-10-19T19:35:54.295Z,66.10
2018-10-19T19:38:22.481Z,68.37
2018-10-19T19:40:56.150Z,61.37
2018-10-19T19:43:24.287Z,59.60
2018-10-19T19:45:52.507Z,62.13
2018-10-19T19:48:25.895Z,63.07
2018-10-19T19:50:54.083Z,60.47
2018-10-19T19:53:22.307Z,52.37
2018-10-19T19:55:50.579Z,52.80
2018-10-19T19:58:18.758Z,53.50
2018-10-19T20:00:46.909Z,59.60
2018-10-19T20:03:15.088Z,69.70
2018-10-19T20:05:43.399Z,71.93
2018-10-19T20:08:11.656Z,74.27
2018-10-19T20:10:39.731Z,71.77
2018-10-19T20:13:07.903Z,71.30
2018-10-19T20:15:36.108Z,63.53
2018-10-19T20:18:04.593Z,70.93
2018-10-19T20:20:32.739Z,66.60
2018-10-19T20:23:01.001Z,60.40
2018-10-19T20:25:29.135Z,65.97
2018-10-19T20:27:57.305Z,67.43
2018-10-19T20:30:25.484Z,69.90
2018-10-19T20:32:53.656Z,66.50
2018-10-19T20:35:21.843Z,63.63
2018-10-19T20:37:50.055Z,69.67
2018-10-19T20:40:18.224Z,64.77
2018-10-19T20:42:46.376Z,62.87
2018-10-19T20:45:14.573Z,64.40
2018-10-19T20:47:42.507Z,69.40
2018-10-19T20:50:10.542Z,72.03
2018-10-19T20:52:38.626Z,75.30
2018-10-19T20:55:06.870Z,74.73
2018-10-19T20:57:35.047Z,74.33
2018-10-19T21:00:03.211Z,76.37
2018-10-19T21:02:31.438Z,77.77
2018-10-19T21:04:59.590Z,75.80
2018-10-19T21:07:27.853Z,78.10
2018-10-19T21:09:55.947Z,72.07
2018-10-19T21:12:24.148Z,71.77
2018-10-19T21:14:52.332Z,71.30
2018-10-19T21:17:20.603Z,66.50
2018-10-19T21:19:48.776Z,59.80
2018-10-19T21:22:16.973Z,60.13
2018-10-19T21:24:45.206Z,58.30
2018-10-19T21:27:13.499Z,61.07
2018-10-19T21:29:41.692Z,61.10
2018-10-19T21:32:09.920Z,63.20
2018-10-19T21:34:38.044Z,62.90
2018-10-19T21:37:06.239Z,58.13
2018-10-19T21:39:34.459Z,58.93
2018-10-19T21:42:02.736Z,55.90
2018-10-19T21:44:30.944Z,56.83
2018-10-19T21:46:59.240Z,56.07
2018-10-19T21:49:27.422Z,60.40
2018-10-19T21:51:55.640Z,62.93
2018-10-19T21:54:23.858Z,67.27
2018-10-19T21:56:52.048Z,61.10
2018-10-19T21:59:20.299Z,57.53
2018-10-19T22:01:48.486Z,59.17
2018-10-19T22:04:16.683Z,56.30
2018-10-19T22:06:44.897Z,53.30
2018-10-19T22:09:13.542Z,52.43
2018-10-19T22:11:42.244Z,53.67
2018-10-19T22:14:10.794Z,54.17
2018-10-19T22:16:39.802Z,52.40
2018-10-19T22:19:08.991Z,50.80
2018-10-19T22:21:37.163Z,49.47
2018-10-19T22:24:05.949Z,50.40
2018-10-19T22:26:34.128Z,47.03
2018-10-19T22:29:02.420Z,47.10
2018-10-19T22:31:30.519Z,48.17
2018-10-19T22:33:58.709Z,48.20
2018-10-19T22:36:27.004Z,46.97
2018-10-19T22:38:55.255Z,45.20
2018-10-19T22:41:23.553Z,46.77
2018-10-19T22:43:51.940Z,44.93
2018-10-19T22:46:20.373Z,43.30
2018-10-19T22:48:48.710Z,44.30
2018-10-19T22:51:16.908Z,45.90
2018-10-19T22:53:44.887Z,48.80
2018-10-19T22:56:13.074Z,46.90
2018-10-19T22:58:41.466Z,46.43
2018-10-19T23:01:09.727Z,46.67
2018-10-19T23:03:37.909Z,46.10
2018-10-19T23:06:06.090Z,46.20
2018-10-19T23:08:34.278Z,45.90
2018-10-19T23:11:02.490Z,43.23
2018-10-19T23:13:30.662Z,45.80
2018-10-19T23:15:58.879Z,47.80
2018-10-19T23:18:27.054Z,47.27
2018-10-19T23:20:55.364Z,45.63
2018-10-19T23:23:23.598Z,47.13
2018-10-19T23:25:51.876Z,47.50
2018-10-19T23:28:20.064Z,45.70
2018-10-19T23:30:48.292Z,46.07
2018-10-19T23:33:16.502Z,47.73
2018-10-19T23:35:44.698Z,46.40
2018-10-19T23:38:12.899Z,47.13
2018-10-19T23:40:41.157Z,47.50
2018-10-19T23:43:09.437Z,47.53
2018-10-19T23:45:37.559Z,47.20
2018-10-19T23:48:05.848Z,45.07
2018-10-19T23:50:34.059Z,44.70
2018-10-19T23:53:02.338Z,46.30
2018-10-19T23:55:30.604Z,46.90
2018-10-19T23:57:58.787Z,51.30
